createdAt,value
2019-03-10T00:00:05.403Z,4.00
2019-03-10T00:01:05.421Z,4.00
2019-03-10T00:02:05.433Z,4.00
2019-03-10T00:03:05.441Z,4.00
2019-03-10T00:04:05.447Z,4.00
2019-03-10T00:05:05.538Z,4.00
2019-03-10T00:06:05.474Z,4.00
2019-03-10T00:07:05.477Z,4.00
2019-03-10T00:08:07.806Z,4.00
2019-03-10T00:09:05.518Z,4.00
2019-03-10T00:10:05.537Z,4.00
2019-03-10T00:11:05.557Z,4.00
2019-03-10T00:12:05.570Z,4.00
2019-03-10T00:13:05.555Z,4.00
2019-03-10T00:14:05.563Z,4.00
2019-03-10T00:15:06.057Z,4.00
2019-03-10T00:16:05.794Z,4.00
2019-03-10T00:17:05.613Z,4.00
2019-03-10T00:18:05.616Z,4.00
2019-03-10T00:19:05.615Z,4.00
2019-03-10T00:20:05.630Z,4.00
2019-03-10T00:21:05.649Z,4.00
2019-03-10T00:22:05.653Z,4.00
2019-03-10T00:23:05.673Z,4.00
2019-03-10T00:24:05.673Z,4.00
2019-03-10T00:25:05.682Z,4.00
2019-03-10T00:26:05.708Z,4.00
2019-03-10T00:27:05.713Z,4.00
2019-03-10T00:28:05.718Z,4.00
2019-03-10T00:29:05.735Z,4.00
2019-03-10T00:30:05.741Z,4.00
2019-03-10T00:31:05.956Z,4.00
2019-03-10T00:32:05.772Z,4.00
2019-03-10T00:33:05.778Z,4.00
2019-03-10T00:34:05.784Z,4.00
2019-03-10T00:35:05.795Z,4.00
2019-03-10T00:36:05.833Z,4.00
2019-03-10T00:37:05.824Z,4.00
2019-03-10T00:38:05.853Z,4.00
2019-03-10T00:39:05.855Z,4.00
2019-03-10T00:40:05.866Z,4.00
2019-03-10T00:41:05.871Z,4.00
2019-03-10T00:42:05.878Z,4.00
2019-03-10T00:43:05.895Z,4.00
2019-03-10T00:44:05.926Z,4.00
2019-03-10T00:45:05.908Z,4.00
2019-03-10T00:46:05.931Z,4.00
2019-03-10T00:47:05.944Z,4.00
2019-03-10T00:48:06.046Z,4.00
2019-03-10T00:49:06.010Z,4.00
2019-03-10T00:50:05.993Z,4.00
2019-03-10T00:51:05.981Z,4.00
2019-03-10T00:52:06.001Z,4.00
2019-03-10T00:53:05.998Z,4.00
2019-03-10T00:54:06.010Z,4.00
2019-03-10T00:55:06.021Z,4.00
2019-03-10T00:56:06.039Z,4.00
2019-03-10T00:57:06.052Z,4.00
2019-03-10T00:58:06.057Z,4.00
2019-03-10T00:59:06.063Z,4.00
2019-03-10T01:00:06.082Z,4.00
2019-03-10T01:01:06.104Z,4.00
2019-03-10T01:02:06.107Z,4.00
2019-03-10T01:03:06.129Z,4.00
2019-03-10T01:04:06.136Z,4.00
2019-03-10T01:05:06.139Z,4.00
2019-03-10T01:06:06.145Z,4.00
2019-03-10T01:07:06.157Z,4.00
2019-03-10T01:08:06.170Z,4.00
2019-03-10T01:09:06.179Z,4.00
2019-03-10T01:10:06.193Z,4.00
2019-03-10T01:11:06.206Z,4.00
2019-03-10T01:12:06.232Z,4.00
2019-03-10T01:13:06.225Z,4.00
2019-03-10T01:14:06.276Z,4.00
2019-03-10T01:15:06.256Z,4.00
2019-03-10T01:16:06.259Z,4.00
2019-03-10T01:17:06.266Z,4.00
2019-03-10T01:18:06.282Z,4.00
2019-03-10T01:19:06.352Z,4.00
2019-03-10T01:20:06.310Z,4.00
2019-03-10T01:21:06.348Z,4.00
2019-03-10T01:22:06.323Z,4.00
2019-03-10T01:23:06.331Z,4.00
2019-03-10T01:24:06.350Z,4.00
2019-03-10T01:25:06.354Z,4.00
2019-03-10T01:26:06.370Z,4.00
2019-03-10T01:27:06.373Z,4.00
2019-03-10T01:28:06.387Z,4.00
2019-03-10T01:29:06.394Z,4.00
2019-03-10T01:30:06.429Z,4.00
2019-03-10T01:31:06.418Z,4.00
2019-03-10T01:32:06.430Z,4.00
2019-03-10T01:33:06.546Z,4.00
2019-03-10T01:34:06.457Z,4.00
2019-03-10T01:35:06.466Z,4.00
2019-03-10T01:36:06.472Z,4.00
2019-03-10T01:37:06.482Z,4.00
2019-03-10T01:38:06.497Z,4.00
2019-03-10T01:39:06.508Z,4.00
2019-03-10T01:40:06.526Z,4.00
2019-03-10T01:41:06.530Z,4.00
2019-03-10T01:42:06.552Z,4.00
2019-03-10T01:43:06.554Z,4.00
2019-03-10T01:44:06.566Z,4.00
2019-03-10T01:45:06.575Z,4.00
2019-03-10T01:46:06.589Z,4.00
2019-03-10T01:47:06.596Z,4.00
2019-03-10T01:48:06.644Z,4.00
2019-03-10T01:49:06.623Z,4.00
2019-03-10T01:50:06.644Z,4.00
2019-03-10T01:51:06.652Z,4.00
2019-03-10T01:52:06.728Z,4.00
2019-03-10T01:53:06.662Z,4.00
2019-03-10T01:54:06.685Z,4.00
2019-03-10T01:55:06.693Z,4.00
2019-03-10T01:56:06.708Z,4.00
2019-03-10T01:57:06.709Z,4.00
2019-03-10T01:58:06.717Z,4.00
2019-03-10T01:59:06.765Z,4.00
2019-03-10T02:00:06.747Z,4.00
2019-03-10T02:01:06.756Z,4.00
2019-03-10T02:02:06.762Z,4.00
2019-03-10T02:03:06.778Z,4.00
2019-03-10T02:04:06.797Z,4.00
2019-03-10T02:05:06.797Z,4.00
2019-03-10T02:06:06.811Z,4.00
2019-03-10T02:07:06.831Z,4.00
2019-03-10T02:08:06.842Z,4.00
2019-03-10T02:09:06.847Z,4.00
2019-03-10T02:10:06.946Z,4.00
2019-03-10T02:11:06.894Z,4.00
2019-03-10T02:12:06.880Z,4.00
2019-03-10T02:13:06.898Z,4.00
2019-03-10T02:14:06.900Z,4.00
2019-03-10T02:15:06.909Z,4.00
2019-03-10T02:16:06.920Z,4.00
2019-03-10T02:17:06.936Z,4.00
2019-03-10T02:18:07.111Z,4.00
2019-03-10T02:19:06.956Z,4.00
2019-03-10T02:20:06.965Z,4.00
2019-03-10T02:21:06.978Z,4.00
2019-03-10T02:22:06.996Z,4.00
2019-03-10T02:23:07.002Z,4.00
2019-03-10T02:24:07.014Z,4.00
2019-03-10T02:25:07.022Z,4.00
2019-03-10T02:26:07.040Z,4.00
2019-03-10T02:27:07.049Z,4.00
2019-03-10T02:28:07.075Z,4.00
2019-03-10T02:29:07.066Z,4.00
2019-03-10T02:30:07.098Z,4.00
2019-03-10T02:31:07.120Z,4.00
2019-03-10T02:32:07.101Z,4.00
2019-03-10T02:33:07.111Z,4.00
2019-03-10T02:34:07.122Z,4.00
2019-03-10T02:35:07.139Z,4.00
2019-03-10T02:36:07.147Z,4.00
2019-03-10T02:37:07.158Z,4.00
2019-03-10T02:38:07.176Z,4.00
2019-03-10T02:39:07.185Z,4.00
2019-03-10T02:40:07.191Z,4.00
2019-03-10T02:41:07.200Z,4.00
2019-03-10T02:42:07.215Z,4.00
2019-03-10T02:43:07.225Z,4.00
2019-03-10T02:44:07.238Z,4.00
2019-03-10T02:45:07.249Z,4.00
2019-03-10T02:46:07.261Z,4.00
2019-03-10T02:47:07.270Z,4.00
2019-03-10T02:48:07.300Z,4.00
2019-03-10T02:49:07.293Z,4.00
2019-03-10T02:50:07.313Z,4.00
2019-03-10T02:51:07.325Z,4.00
2019-03-10T02:52:07.349Z,4.00
2019-03-10T02:53:07.352Z,4.00
2019-03-10T02:54:07.347Z,4.00
2019-03-10T02:55:07.363Z,4.00
2019-03-10T02:56:07.373Z,4.00
2019-03-10T02:57:07.400Z,4.00
2019-03-10T02:58:07.416Z,4.00
2019-03-10T02:59:07.404Z,4.00
2019-03-10T03:00:07.422Z,4.00
2019-03-10T03:01:07.434Z,4.00
2019-03-10T03:02:07.438Z,4.00
2019-03-10T03:03:07.456Z,4.00
2019-03-10T03:04:07.462Z,4.00
2019-03-10T03:05:07.483Z,4.00
2019-03-10T03:06:07.484Z,4.00
2019-03-10T03:07:07.496Z,4.00
2019-03-10T03:08:07.508Z,4.00
2019-03-10T03:09:07.529Z,4.00
2019-03-10T03:10:07.532Z,4.00
2019-03-10T03:11:07.547Z,4.00
2019-03-10T03:12:07.550Z,4.00
2019-03-10T03:13:07.565Z,4.00
2019-03-10T03:14:07.574Z,4.00
2019-03-10T03:15:07.589Z,4.00
2019-03-10T03:16:07.598Z,4.00
2019-03-10T03:17:07.611Z,4.00
2019-03-10T03:18:07.631Z,4.00
2019-03-10T03:19:07.630Z,4.00
2019-03-10T03:20:07.656Z,4.00
2019-03-10T03:21:07.673Z,4.00
2019-03-10T03:22:07.782Z,4.00
2019-03-10T03:23:07.673Z,4.00
2019-03-10T03:24:07.697Z,4.00
2019-03-10T03:25:07.713Z,4.00
2019-03-10T03:26:07.710Z,4.00
2019-03-10T03:27:07.727Z,4.00
2019-03-10T03:28:07.736Z,4.00
2019-03-10T03:29:07.750Z,4.00
2019-03-10T03:30:07.769Z,4.00
2019-03-10T03:31:07.778Z,4.00
2019-03-10T03:32:07.797Z,4.00
2019-03-10T03:33:07.790Z,4.00
2019-03-10T03:34:07.810Z,4.00
2019-03-10T03:35:07.816Z,4.00
2019-03-10T03:36:07.833Z,4.00
2019-03-10T03:37:07.837Z,4.00
2019-03-10T03:38:07.866Z,4.00
2019-03-10T03:39:07.875Z,4.00
2019-03-10T03:40:07.885Z,4.00
2019-03-10T03:41:07.903Z,4.00
2019-03-10T03:42:07.918Z,4.00
2019-03-10T03:43:07.913Z,4.00
2019-03-10T03:44:07.947Z,4.00
2019-03-10T03:45:07.942Z,4.00
2019-03-10T03:46:07.971Z,4.00
2019-03-10T03:47:07.953Z,4.00
2019-03-10T03:48:07.966Z,4.00
2019-03-10T03:49:07.975Z,4.00
2019-03-10T03:50:07.989Z,4.00
2019-03-10T03:51:08.006Z,4.00
2019-03-10T03:52:08.025Z,4.00
2019-03-10T03:53:08.022Z,4.00
2019-03-10T03:54:08.042Z,4.00
2019-03-10T03:55:08.049Z,4.00
2019-03-10T03:56:08.089Z,4.00
2019-03-10T03:57:08.101Z,4.00
2019-03-10T03:58:08.083Z,4.00
2019-03-10T03:59:08.446Z,4.00
2019-03-10T04:00:08.103Z,4.00
2019-03-10T04:01:08.118Z,4.00
2019-03-10T04:02:08.147Z,4.00
2019-03-10T04:03:08.146Z,4.00
2019-03-10T04:04:08.153Z,4.00
2019-03-10T04:05:08.161Z,4.00
2019-03-10T04:06:08.174Z,4.00
2019-03-10T04:07:08.183Z,4.00
2019-03-10T04:08:08.194Z,4.00
2019-03-10T04:09:08.232Z,4.00
2019-03-10T04:10:08.224Z,4.00
2019-03-10T04:11:08.231Z,4.00
2019-03-10T04:12:08.240Z,4.00
2019-03-10T04:13:08.249Z,4.00
2019-03-10T04:14:08.333Z,4.00
2019-03-10T04:15:08.277Z,4.00
2019-03-10T04:16:08.288Z,4.00
2019-03-10T04:17:08.298Z,4.00
2019-03-10T04:18:08.312Z,4.00
2019-03-10T04:19:08.329Z,4.00
2019-03-10T04:20:08.333Z,4.00
2019-03-10T04:21:08.353Z,4.00
2019-03-10T04:22:08.352Z,4.00
2019-03-10T04:23:08.366Z,4.00
2019-03-10T04:24:08.383Z,4.00
2019-03-10T04:25:08.405Z,4.00
2019-03-10T04:26:08.412Z,4.00
2019-03-10T04:27:08.419Z,4.00
2019-03-10T04:28:08.421Z,4.00
2019-03-10T04:29:08.473Z,4.00
2019-03-10T04:30:08.451Z,4.00
2019-03-10T04:31:08.596Z,0.00
2019-03-10T04:32:08.528Z,0.00
2019-03-10T04:33:08.491Z,0.00
2019-03-10T04:34:08.489Z,0.00
2019-03-10T04:35:08.507Z,0.00
2019-03-10T04:36:08.520Z,0.00
2019-03-10T04:37:08.584Z,0.00
2019-03-10T04:38:08.540Z,4.00
2019-03-10T04:39:08.548Z,4.00
2019-03-10T04:40:08.559Z,4.00
2019-03-10T04:41:08.566Z,4.00
2019-03-10T04:42:08.581Z,4.00
2019-03-10T04:43:08.591Z,4.00
2019-03-10T04:44:08.606Z,4.00
2019-03-10T04:45:08.616Z,4.00
2019-03-10T04:46:08.623Z,4.00
2019-03-10T04:47:08.640Z,4.00
2019-03-10T04:48:08.647Z,4.00
2019-03-10T04:49:08.667Z,4.00
2019-03-10T04:50:08.672Z,4.00
2019-03-10T04:51:08.679Z,4.00
2019-03-10T04:52:08.693Z,4.00
2019-03-10T04:53:08.708Z,4.00
2019-03-10T04:54:08.720Z,4.00
2019-03-10T04:55:08.737Z,4.00
2019-03-10T04:56:08.737Z,4.00
2019-03-10T04:57:08.756Z,4.00
2019-03-10T04:58:08.761Z,4.00
2019-03-10T04:59:08.768Z,4.00
2019-03-10T05:00:08.814Z,4.00
2019-03-10T05:01:08.849Z,4.00
2019-03-10T05:02:08.827Z,4.00
2019-03-10T05:03:08.828Z,4.00
2019-03-10T05:04:08.838Z,4.00
2019-03-10T05:05:08.837Z,4.00
2019-03-10T05:06:08.850Z,4.00
2019-03-10T05:07:08.867Z,4.00
2019-03-10T05:08:08.878Z,4.00
2019-03-10T05:09:08.880Z,4.00
2019-03-10T05:10:08.892Z,4.00
2019-03-10T05:11:08.905Z,4.00
2019-03-10T05:12:08.920Z,4.00
2019-03-10T05:13:08.927Z,4.00
2019-03-10T05:14:08.936Z,4.00
2019-03-10T05:15:08.948Z,4.00
2019-03-10T05:16:08.962Z,4.00
2019-03-10T05:17:08.971Z,4.00
2019-03-10T05:18:08.984Z,4.00
2019-03-10T05:19:08.993Z,4.00
2019-03-10T05:20:09.007Z,4.00
2019-03-10T05:21:09.025Z,4.00
2019-03-10T05:22:09.025Z,4.00
2019-03-10T05:23:09.038Z,4.00
2019-03-10T05:24:09.057Z,4.00
2019-03-10T05:25:09.060Z,4.00
2019-03-10T05:26:09.080Z,4.00
2019-03-10T05:27:09.083Z,4.00
2019-03-10T05:28:09.095Z,4.00
2019-03-10T05:29:09.108Z,4.00
2019-03-10T05:30:09.169Z,4.00
2019-03-10T05:31:09.175Z,4.00
2019-03-10T05:32:09.151Z,4.00
2019-03-10T05:33:09.156Z,4.00
2019-03-10T05:34:09.238Z,4.00
2019-03-10T05:35:09.191Z,4.00
2019-03-10T05:36:09.212Z,4.00
2019-03-10T05:37:09.194Z,4.00
2019-03-10T05:38:09.209Z,4.00
2019-03-10T05:39:09.222Z,0.00
2019-03-10T05:40:09.227Z,0.00
2019-03-10T05:41:09.244Z,4.00
2019-03-10T05:42:09.249Z,4.00
2019-03-10T05:43:09.270Z,4.00
2019-03-10T05:44:09.274Z,4.00
2019-03-10T05:45:09.296Z,8.00
2019-03-10T05:46:09.292Z,8.00
2019-03-10T05:47:09.312Z,4.00
2019-03-10T05:48:09.322Z,4.00
2019-03-10T05:49:09.329Z,4.00
2019-03-10T05:50:09.337Z,8.00
2019-03-10T05:51:09.351Z,8.00
2019-03-10T05:52:09.367Z,8.00
2019-03-10T05:53:09.372Z,8.00
2019-03-10T05:54:09.388Z,8.00
2019-03-10T05:55:09.392Z,8.00
2019-03-10T05:56:09.409Z,8.00
2019-03-10T05:57:09.415Z,8.00
2019-03-10T05:58:09.527Z,8.00
2019-03-10T06:00:09.485Z,12.00
2019-03-10T06:01:09.472Z,12.00
2019-03-10T06:02:09.473Z,12.00
2019-03-10T06:03:09.484Z,16.00
2019-03-10T06:04:09.498Z,16.00
2019-03-10T06:05:09.504Z,20.00
2019-03-10T06:06:09.578Z,20.00
2019-03-10T06:07:09.557Z,20.00
2019-03-10T06:08:09.539Z,20.00
2019-03-10T06:09:09.567Z,20.00
2019-03-10T06:10:09.571Z,20.00
2019-03-10T06:11:09.577Z,20.00
2019-03-10T06:12:09.722Z,20.00
2019-03-10T06:13:09.798Z,28.00
2019-03-10T06:14:09.606Z,36.00
2019-03-10T06:15:09.626Z,40.00
2019-03-10T06:16:09.644Z,40.00
2019-03-10T06:17:09.793Z,44.00
2019-03-10T06:18:13.622Z,48.00
2019-03-10T06:19:09.776Z,48.00
2019-03-10T06:20:09.673Z,52.00
2019-03-10T06:21:09.691Z,52.00
2019-03-10T06:22:09.703Z,52.00
2019-03-10T06:23:09.762Z,52.00
2019-03-10T06:24:09.722Z,48.00
2019-03-10T06:25:09.732Z,48.00
2019-03-10T06:26:09.741Z,52.00
2019-03-10T06:27:09.827Z,56.00
2019-03-10T06:28:09.767Z,56.00
2019-03-10T06:29:10.523Z,56.00
2019-03-10T06:30:09.786Z,56.00
2019-03-10T06:31:09.802Z,52.00
2019-03-10T06:32:09.811Z,48.00
2019-03-10T06:33:09.878Z,44.00
2019-03-10T06:34:09.997Z,44.00
2019-03-10T06:35:09.890Z,48.00
2019-03-10T06:36:09.853Z,56.00
2019-03-10T06:37:10.220Z,64.00
2019-03-10T06:38:09.891Z,68.00
2019-03-10T06:39:09.919Z,60.00
2019-03-10T06:40:09.899Z,56.00
2019-03-10T06:41:09.910Z,56.00
2019-03-10T06:42:09.932Z,72.00
2019-03-10T06:43:09.991Z,92.00
2019-03-10T06:44:10.015Z,116.00
2019-03-10T06:45:09.956Z,136.00
2019-03-10T06:46:09.970Z,140.00
2019-03-10T06:47:09.982Z,136.00
2019-03-10T06:48:09.991Z,136.00
2019-03-10T06:49:10.003Z,132.00
2019-03-10T06:50:12.174Z,144.00
2019-03-10T06:51:10.028Z,144.00
2019-03-10T06:52:10.043Z,144.00
2019-03-10T06:53:10.057Z,152.00
2019-03-10T06:54:10.060Z,156.00
2019-03-10T06:55:10.076Z,160.00
2019-03-10T06:56:10.085Z,160.00
2019-03-10T06:57:10.093Z,152.00
2019-03-10T06:58:10.144Z,148.00
2019-03-10T06:59:10.116Z,144.00
2019-03-10T07:00:10.126Z,132.00
2019-03-10T07:01:10.137Z,124.00
2019-03-10T07:02:10.149Z,124.00
2019-03-10T07:03:10.156Z,152.00
2019-03-10T07:04:10.172Z,184.00
2019-03-10T07:05:10.184Z,200.00
2019-03-10T07:06:10.196Z,208.00
2019-03-10T07:07:10.207Z,208.00
2019-03-10T07:08:10.219Z,196.00
2019-03-10T07:09:10.259Z,168.00
2019-03-10T07:10:10.248Z,132.00
2019-03-10T07:11:10.267Z,120.00
2019-03-10T07:12:10.263Z,148.00
2019-03-10T07:13:10.272Z,172.00
2019-03-10T07:14:10.315Z,176.00
2019-03-10T07:15:10.296Z,176.00
2019-03-10T07:16:10.307Z,172.00
2019-03-10T07:17:10.324Z,204.00
2019-03-10T07:18:10.328Z,324.00
2019-03-10T07:19:10.340Z,404.00
2019-03-10T07:20:10.353Z,348.00
2019-03-10T07:21:10.361Z,248.00
2019-03-10T07:22:10.374Z,208.00
2019-03-10T07:23:10.385Z,232.00
2019-03-10T07:24:10.401Z,304.00
2019-03-10T07:25:10.413Z,384.00
2019-03-10T07:26:10.421Z,376.00
2019-03-10T07:27:10.437Z,352.00
2019-03-10T07:28:10.444Z,340.00
2019-03-10T07:29:10.454Z,344.00
2019-03-10T07:30:10.465Z,380.00
2019-03-10T07:31:10.479Z,412.00
2019-03-10T07:32:10.487Z,436.00
2019-03-10T07:33:10.502Z,388.00
2019-03-10T07:34:10.513Z,376.00
2019-03-10T07:35:10.521Z,400.00
2019-03-10T07:36:10.547Z,420.00
2019-03-10T07:37:10.546Z,420.00
2019-03-10T07:38:10.561Z,404.00
2019-03-10T07:39:10.599Z,436.00
2019-03-10T07:40:10.610Z,420.00
2019-03-10T07:41:10.590Z,460.00
2019-03-10T07:42:10.602Z,588.00
2019-03-10T07:43:10.615Z,740.00
2019-03-10T07:44:10.631Z,804.00
2019-03-10T07:45:10.639Z,808.00
2019-03-10T07:46:10.660Z,820.00
2019-03-10T07:47:10.700Z,756.00
2019-03-10T07:48:10.700Z,668.00
2019-03-10T07:49:10.683Z,584.00
2019-03-10T07:50:10.695Z,520.00
2019-03-10T07:51:10.711Z,520.00
2019-03-10T07:52:19.804Z,548.00
2019-03-10T07:53:10.733Z,604.00
2019-03-10T07:54:10.742Z,596.00
2019-03-10T07:55:10.755Z,536.00
2019-03-10T07:56:11.605Z,492.00
2019-03-10T07:57:10.826Z,456.00
2019-03-10T07:58:10.786Z,460.00
2019-03-10T07:59:10.815Z,448.00
2019-03-10T08:00:10.815Z,424.00
2019-03-10T08:01:10.820Z,396.00
2019-03-10T08:02:10.842Z,356.00
2019-03-10T08:03:10.847Z,328.00
2019-03-10T08:04:10.905Z,348.00
2019-03-10T08:05:10.941Z,476.00
2019-03-10T08:06:10.930Z,612.00
2019-03-10T08:07:10.892Z,616.00
2019-03-10T08:08:10.901Z,640.00
2019-03-10T08:09:10.918Z,652.00
2019-03-10T08:10:10.939Z,668.00
2019-03-10T08:11:10.970Z,680.00
2019-03-10T08:12:10.966Z,636.00
2019-03-10T08:13:10.979Z,544.00
2019-03-10T08:14:10.970Z,456.00
2019-03-10T08:15:10.982Z,412.00
2019-03-10T08:16:10.993Z,400.00
2019-03-10T08:17:11.007Z,404.00
2019-03-10T08:18:11.021Z,396.00
2019-03-10T08:19:11.031Z,328.00
2019-03-10T08:20:11.061Z,280.00
2019-03-10T08:21:11.051Z,260.00
2019-03-10T08:22:11.067Z,300.00
2019-03-10T08:23:11.071Z,440.00
2019-03-10T08:24:11.087Z,636.00
2019-03-10T08:25:11.097Z,736.00
2019-03-10T08:26:11.112Z,840.00
2019-03-10T08:27:11.122Z,800.00
2019-03-10T08:28:11.130Z,696.00
2019-03-10T08:29:11.141Z,780.00
2019-03-10T08:30:11.163Z,920.00
2019-03-10T08:31:11.162Z,984.00
2019-03-10T08:32:11.178Z,944.00
2019-03-10T08:33:11.188Z,1008.00
2019-03-10T08:34:11.200Z,1072.00
2019-03-10T08:35:11.214Z,1188.00
2019-03-10T08:36:13.572Z,1204.00
2019-03-10T08:37:11.235Z,1336.00
2019-03-10T08:38:11.246Z,1464.00
2019-03-10T08:39:11.301Z,1424.00
2019-03-10T08:40:11.273Z,1340.00
2019-03-10T08:41:11.279Z,1256.00
2019-03-10T08:42:19.807Z,1084.00
2019-03-10T08:43:11.409Z,924.00
2019-03-10T08:44:11.319Z,808.00
2019-03-10T08:45:11.329Z,800.00
2019-03-10T08:47:12.159Z,936.00
2019-03-10T08:48:11.363Z,976.00
2019-03-10T08:49:11.384Z,988.00
2019-03-10T08:50:11.385Z,1040.00
2019-03-10T08:51:11.392Z,1084.00
2019-03-10T08:52:11.467Z,1096.00
2019-03-10T08:53:11.418Z,1140.00
2019-03-10T08:54:11.487Z,1056.00
2019-03-10T08:55:11.436Z,1076.00
2019-03-10T08:56:11.448Z,948.00
2019-03-10T08:57:11.467Z,924.00
2019-03-10T08:58:11.480Z,964.00
2019-03-10T08:59:11.482Z,876.00
2019-03-10T09:00:11.495Z,772.00
2019-03-10T09:01:11.507Z,816.00
2019-03-10T09:02:11.515Z,944.00
2019-03-10T09:03:11.525Z,872.00
2019-03-10T09:04:11.548Z,860.00
2019-03-10T09:05:11.553Z,952.00
2019-03-10T09:06:11.560Z,1096.00
2019-03-10T09:07:11.580Z,1244.00
2019-03-10T09:08:11.585Z,1340.00
2019-03-10T09:09:11.625Z,1348.00
2019-03-10T09:10:11.616Z,1280.00
2019-03-10T09:11:11.616Z,1372.00
2019-03-10T09:12:11.691Z,1620.00
2019-03-10T09:13:11.658Z,1644.00
2019-03-10T09:14:11.685Z,1596.00
2019-03-10T09:15:11.832Z,1488.00
2019-03-10T09:16:12.059Z,1364.00
2019-03-10T09:17:11.685Z,1344.00
2019-03-10T09:18:11.707Z,1388.00
2019-03-10T09:19:11.713Z,1460.00
2019-03-10T09:20:11.729Z,1468.00
2019-03-10T09:21:11.739Z,1380.00
2019-03-10T09:22:11.745Z,1268.00
2019-03-10T09:23:11.807Z,1148.00
2019-03-10T09:24:11.798Z,1044.00
2019-03-10T09:25:11.830Z,1040.00
2019-03-10T09:26:11.911Z,1004.00
2019-03-10T09:27:11.827Z,1076.00
2019-03-10T09:28:11.870Z,1240.00
2019-03-10T09:29:11.850Z,1320.00
2019-03-10T09:30:11.840Z,1364.00
2019-03-10T09:31:11.853Z,1392.00
2019-03-10T09:32:11.861Z,1452.00
2019-03-10T09:33:11.902Z,1364.00
2019-03-10T09:34:11.885Z,1140.00
2019-03-10T09:35:11.898Z,1072.00
2019-03-10T09:36:11.912Z,972.00
2019-03-10T09:37:11.926Z,916.00
2019-03-10T09:38:11.941Z,884.00
2019-03-10T09:39:11.944Z,904.00
2019-03-10T09:40:11.964Z,1048.00
2019-03-10T09:41:11.968Z,1048.00
2019-03-10T09:42:11.982Z,1092.00
2019-03-10T09:43:11.988Z,1136.00
2019-03-10T09:44:12.027Z,1100.00
2019-03-10T09:45:12.011Z,1152.00
2019-03-10T09:46:12.025Z,1280.00
2019-03-10T09:47:12.174Z,1596.00
2019-03-10T09:48:12.048Z,1644.00
2019-03-10T09:49:12.063Z,1696.00
2019-03-10T09:50:12.078Z,1368.00
2019-03-10T09:51:12.100Z,1192.00
2019-03-10T09:52:12.091Z,1012.00
2019-03-10T09:53:12.139Z,976.00
2019-03-10T09:54:12.153Z,1060.00
2019-03-10T09:55:12.135Z,1064.00
2019-03-10T09:56:12.146Z,1084.00
2019-03-10T09:57:12.147Z,1036.00
2019-03-10T09:58:12.173Z,996.00
2019-03-10T09:59:12.180Z,952.00
2019-03-10T10:00:12.188Z,940.00
2019-03-10T10:01:12.196Z,1032.00
2019-03-10T10:02:12.214Z,1144.00
2019-03-10T10:03:12.223Z,1128.00
2019-03-10T10:04:12.235Z,1060.00
2019-03-10T10:05:12.248Z,1356.00
2019-03-10T10:06:12.260Z,1472.00
2019-03-10T10:07:12.269Z,1584.00
2019-03-10T10:08:12.283Z,1644.00
2019-03-10T10:09:12.301Z,1732.00
2019-03-10T10:10:12.305Z,1616.00
2019-03-10T10:11:12.325Z,1712.00
2019-03-10T10:12:13.648Z,1996.00
2019-03-10T10:13:12.343Z,1900.00
2019-03-10T10:14:12.343Z,1916.00
2019-03-10T10:15:12.356Z,1520.00
2019-03-10T10:16:12.381Z,1288.00
2019-03-10T10:17:12.387Z,1036.00
2019-03-10T10:18:12.432Z,892.00
2019-03-10T10:19:12.414Z,788.00
2019-03-10T10:20:12.440Z,776.00
2019-03-10T10:21:12.525Z,728.00
2019-03-10T10:22:12.526Z,660.00
2019-03-10T10:23:12.453Z,624.00
2019-03-10T10:24:12.465Z,692.00
2019-03-10T10:25:12.524Z,852.00
2019-03-10T10:26:12.529Z,996.00
2019-03-10T10:27:12.536Z,1116.00
2019-03-10T10:28:12.511Z,1128.00
2019-03-10T10:29:12.528Z,1120.00
2019-03-10T10:30:12.539Z,1148.00
2019-03-10T10:31:13.987Z,1244.00
2019-03-10T10:32:12.559Z,1336.00
2019-03-10T10:33:12.573Z,1420.00
2019-03-10T10:34:12.582Z,1304.00
2019-03-10T10:35:12.600Z,1144.00
2019-03-10T10:36:12.608Z,960.00
2019-03-10T10:37:12.615Z,788.00
2019-03-10T10:38:18.608Z,672.00
2019-03-10T10:39:12.644Z,696.00
2019-03-10T10:40:12.655Z,884.00
2019-03-10T10:41:12.679Z,1240.00
2019-03-10T10:42:12.686Z,1952.00
2019-03-10T10:43:12.687Z,2480.00
2019-03-10T10:44:12.709Z,1888.00
2019-03-10T10:45:12.709Z,1564.00
2019-03-10T10:46:12.723Z,1456.00
2019-03-10T10:47:12.731Z,1372.00
2019-03-10T10:48:12.745Z,1400.00
2019-03-10T10:49:12.806Z,1264.00
2019-03-10T10:50:13.866Z,1216.00
2019-03-10T10:51:12.787Z,1344.00
2019-03-10T10:52:12.981Z,1572.00
2019-03-10T10:53:13.323Z,1696.00
2019-03-10T10:54:12.848Z,1684.00
2019-03-10T10:55:12.848Z,1648.00
2019-03-10T10:56:12.850Z,1592.00
2019-03-10T10:57:12.849Z,1720.00
2019-03-10T10:58:12.862Z,1704.00
2019-03-10T10:59:12.874Z,1296.00
2019-03-10T11:00:12.886Z,1108.00
2019-03-10T11:01:12.893Z,1236.00
2019-03-10T11:02:12.911Z,1248.00
2019-03-10T11:03:12.923Z,1192.00
2019-03-10T11:04:12.934Z,1188.00
2019-03-10T11:05:12.941Z,1480.00
2019-03-10T11:06:12.961Z,1776.00
2019-03-10T11:07:12.965Z,1752.00
2019-03-10T11:08:12.978Z,1660.00
2019-03-10T11:09:12.992Z,1504.00
2019-03-10T11:10:13.012Z,1320.00
2019-03-10T11:11:13.014Z,1320.00
2019-03-10T11:12:13.028Z,1188.00
2019-03-10T11:13:13.038Z,1080.00
2019-03-10T11:14:13.050Z,1088.00
2019-03-10T11:15:13.060Z,1100.00
2019-03-10T11:16:13.079Z,1064.00
2019-03-10T11:17:13.109Z,1180.00
2019-03-10T11:18:13.126Z,1368.00
2019-03-10T11:19:13.128Z,1208.00
2019-03-10T11:20:13.119Z,1004.00
2019-03-10T11:21:13.135Z,956.00
2019-03-10T11:22:13.145Z,1108.00
2019-03-10T11:23:13.587Z,1272.00
2019-03-10T11:24:13.174Z,1452.00
2019-03-10T11:25:13.233Z,1484.00
2019-03-10T11:26:13.643Z,1580.00
2019-03-10T11:27:13.215Z,1616.00
2019-03-10T11:28:13.214Z,1544.00
2019-03-10T11:29:13.235Z,1300.00
2019-03-10T11:30:13.242Z,1132.00
2019-03-10T11:31:14.063Z,1224.00
2019-03-10T11:32:13.266Z,1384.00
2019-03-10T11:33:13.276Z,1208.00
2019-03-10T11:34:13.288Z,1080.00
2019-03-10T11:35:13.307Z,896.00
2019-03-10T11:36:13.308Z,804.00
2019-03-10T11:37:13.324Z,728.00
2019-03-10T11:38:13.333Z,760.00
2019-03-10T11:39:13.347Z,808.00
2019-03-10T11:40:13.365Z,1064.00
2019-03-10T11:41:13.365Z,1072.00
2019-03-10T11:42:13.379Z,1084.00
2019-03-10T11:43:13.389Z,1032.00
2019-03-10T11:44:13.405Z,1052.00
2019-03-10T11:45:13.421Z,1048.00
2019-03-10T11:46:13.428Z,1068.00
2019-03-10T11:47:13.500Z,1024.00
2019-03-10T11:48:13.455Z,1052.00
2019-03-10T11:50:15.132Z,1212.00
2019-03-10T11:51:13.517Z,1152.00
2019-03-10T11:52:13.498Z,1092.00
2019-03-10T11:53:19.039Z,920.00
2019-03-10T11:54:13.574Z,976.00
2019-03-10T11:55:13.643Z,1172.00
2019-03-10T11:56:13.597Z,1112.00
2019-03-10T11:57:13.738Z,1164.00
2019-03-10T11:59:13.579Z,1252.00
2019-03-10T12:00:13.590Z,1312.00
2019-03-10T12:01:13.600Z,1760.00
2019-03-10T12:02:16.432Z,2540.00
2019-03-10T12:03:13.635Z,2440.00
2019-03-10T12:04:13.640Z,2084.00
2019-03-10T12:05:13.653Z,1536.00
2019-03-10T12:06:13.666Z,1240.00
2019-03-10T12:07:13.673Z,1340.00
2019-03-10T12:08:13.685Z,1120.00
2019-03-10T12:09:13.697Z,1044.00
2019-03-10T12:10:13.712Z,912.00
2019-03-10T12:11:13.725Z,1016.00
2019-03-10T12:12:13.746Z,1160.00
2019-03-10T12:13:13.746Z,1212.00
2019-03-10T12:14:13.801Z,1260.00
2019-03-10T12:15:13.774Z,1432.00
2019-03-10T12:16:13.787Z,1436.00
2019-03-10T12:17:13.795Z,1708.00
2019-03-10T12:18:13.806Z,2100.00
2019-03-10T12:19:13.824Z,2336.00
2019-03-10T12:20:13.835Z,2204.00
2019-03-10T12:21:13.851Z,1744.00
2019-03-10T12:22:13.867Z,1520.00
2019-03-10T12:23:13.893Z,1316.00
2019-03-10T12:24:13.935Z,832.00
2019-03-10T12:25:13.893Z,504.00
2019-03-10T12:26:13.942Z,460.00
2019-03-10T12:27:14.019Z,504.00
2019-03-10T12:28:13.975Z,584.00
2019-03-10T12:29:14.446Z,636.00
2019-03-10T12:30:14.415Z,884.00
2019-03-10T12:31:13.976Z,1072.00
2019-03-10T12:32:13.979Z,1604.00
2019-03-10T12:33:13.997Z,1416.00
2019-03-10T12:34:13.999Z,1048.00
2019-03-10T12:35:14.014Z,776.00
2019-03-10T12:36:14.027Z,544.00
2019-03-10T12:37:14.038Z,448.00
2019-03-10T12:38:14.046Z,576.00
2019-03-10T12:39:14.068Z,668.00
2019-03-10T12:40:14.080Z,692.00
2019-03-10T12:41:14.084Z,720.00
2019-03-10T12:42:14.102Z,804.00
2019-03-10T12:43:14.114Z,1256.00
2019-03-10T12:44:14.129Z,1520.00
2019-03-10T12:45:14.136Z,1720.00
2019-03-10T12:46:14.164Z,1832.00
2019-03-10T12:47:14.163Z,2232.00
2019-03-10T12:48:14.224Z,2300.00
2019-03-10T12:49:14.179Z,2284.00
2019-03-10T12:50:14.197Z,2372.00